Time;durP1;ratioP1;P1;durP2;ratioP2;P2;SDS_P1;SDS_P2;PMS_P1;PMS_P2;Temp;Humidity;BMP_temperature;BMP_pressure;BME280_temperature;BME280_humidity;BME280_pressure;Samples;Min_cycle;Max_cycle;Signal;HPM_P1;HPM_P2
2021/01/02 00:02:15;;;;;;;41.28;25.88;;;;;;;;;;5114286;28;20273;-61
2021/01/02 00:05:12;;;;;;;36.38;26.38;;;;;;;;;;5114659;28;20180;-61
2021/01/02 00:07:47;;;;;;;40.05;25.38;;;;;;;;;;5051676;28;20210;-61
2021/01/02 00:10:16;;;;;;;39.50;24.92;;;;;;;;;;5104003;28;20199;-60
2021/01/02 00:13:00;;;;;;;39.45;25.00;;;;;;;;;;5114008;28;20220;-60
2021/01/02 00:15:32;;;;;;;39.38;25.73;;;;;;;;;;5114268;28;20199;-60
2021/01/02 00:18:04;;;;;;;43.20;24.77;;;;;;;;;;5114392;28;20187;-61
2021/01/02 00:20:41;;;;;;;41.15;26.35;;;;;;;;;;5114278;28;20667;-60
2021/01/02 00:23:12;;;;;;;35.70;23.73;;;;;;;;;;5116346;28;20254;-60
2021/01/02 00:25:39;;;;;;;40.17;24.48;;;;;;;;;;5118185;27;20183;-61
2021/01/02 00:28:23;;;;;;;40.15;24.42;;;;;;;;;;5118466;28;20223;-61
2021/01/02 00:31:07;;;;;;;42.45;25.45;;;;;;;;;;5118961;28;20188;-60
2021/01/02 00:33:45;;;;;;;41.92;24.17;;;;;;;;;;5118081;28;20226;-60
2021/01/02 00:36:14;;;;;;;36.28;24.08;;;;;;;;;;5121524;28;20195;-59
2021/01/02 00:38:41;;;;;;;37.42;24.30;;;;;;;;;;5128101;28;20196;-60
2021/01/02 00:41:08;;;;;;;41.38;24.42;;;;;;;;;;5120060;28;20199;-60
2021/01/02 00:43:35;;;;;;;37.70;24.45;;;;;;;;;;5117999;27;20223;-60
2021/01/02 00:46:03;;;;;;;36.63;24.77;;;;;;;;;;5118258;28;20196;-60
2021/01/02 00:48:32;;;;;;;36.80;23.65;;;;;;;;;;5118431;28;20227;-61
2021/01/02 00:51:01;;;;;;;43.53;23.75;;;;;;;;;;5118414;28;20199;-60
2021/01/02 00:53:33;;;;;;;36.63;24.02;;;;;;;;;;5119340;28;20571;-60
2021/01/02 00:56:18;;;;;;;37.45;22.75;;;;;;;;;;5117961;27;20229;-61
2021/01/02 00:59:02;;;;;;;39.13;26.13;;;;;;;;;;5119272;28;20192;-61
2021/01/02 01:01:36;;;;;;;39.90;24.73;;;;;;;;;;5118531;27;20599;-60
2021/01/02 01:04:11;;;;;;;35.08;22.90;;;;;;;;;;5118064;28;20585;-60
2021/01/02 01:06:38;;;;;;;36.70;24.10;;;;;;;;;;5118123;28;20288;-60
2021/01/02 01:09:06;;;;;;;36.65;23.20;;;;;;;;;;5117839;28;20306;-60
2021/01/02 01:11:34;;;;;;;39.53;26.00;;;;;;;;;;5117740;28;20195;-60
2021/01/02 01:14:03;;;;;;;36.25;24.13;;;;;;;;;;5117422;28;20195;-60
2021/01/02 01:16:30;;;;;;;35.50;22.65;;;;;;;;;;5117215;28;20206;-60
2021/01/02 01:18:59;;;;;;;37.40;24.13;;;;;;;;;;5117419;28;20204;-60
2021/01/02 01:21:29;;;;;;;35.70;22.35;;;;;;;;;;5117005;28;20635;-61
2021/01/02 01:24:09;;;;;;;35.10;22.70;;;;;;;;;;5116998;28;20296;-61
2021/01/02 01:27:00;;;;;;;32.80;21.90;;;;;;;;;;5116939;28;20191;-60
2021/01/02 01:29:28;;;;;;;34.95;23.17;;;;;;;;;;5117017;28;20268;-60
2021/01/02 01:31:58;;;;;;;38.58;23.73;;;;;;;;;;5116896;28;20219;-61
2021/01/02 01:34:26;;;;;;;38.95;22.88;;;;;;;;;;5116313;28;20215;-60
2021/01/02 01:36:53;;;;;;;39.17;24.50;;;;;;;;;;5116468;28;20207;-60
2021/01/02 01:39:21;;;;;;;37.72;23.50;;;;;;;;;;5117531;28;20228;-60
2021/01/02 01:41:53;;;;;;;40.28;23.52;;;;;;;;;;5117523;28;20315;-61
2021/01/02 01:44:35;;;;;;;41.42;24.65;;;;;;;;;;5117400;28;20645;-61
2021/01/02 01:47:05;;;;;;;37.28;23.08;;;;;;;;;;5116759;28;20187;-60
2021/01/02 01:49:58;;;;;;;36.22;23.20;;;;;;;;;;5116742;28;20578;-61
2021/01/02 01:52:37;;;;;;;43.25;24.98;;;;;;;;;;5080491;28;20223;-60
2021/01/02 01:55:08;;;;;;;40.90;23.15;;;;;;;;;;5116407;28;20187;-61
2021/01/02 01:57:39;;;;;;;36.13;21.77;;;;;;;;;;5116557;28;20192;-60
2021/01/02 02:00:10;;;;;;;36.88;23.10;;;;;;;;;;5117025;28;20248;-60
2021/01/02 02:02:55;;;;;;;39.60;23.67;;;;;;;;;;5116241;28;20227;-61
2021/01/02 02:05:22;;;;;;;38.47;24.08;;;;;;;;;;5116076;28;20195;-60
2021/01/02 02:07:59;;;;;;;34.30;22.63;;;;;;;;;;5115858;28;20724;-61
2021/01/02 02:10:27;;;;;;;38.70;22.45;;;;;;;;;;5116120;28;20190;-59
2021/01/02 02:12:54;;;;;;;39.78;24.75;;;;;;;;;;5116063;28;20220;-60
2021/01/02 02:15:22;;;;;;;36.97;23.23;;;;;;;;;;5116346;28;20290;-61
2021/01/02 02:17:49;;;;;;;41.50;22.70;;;;;;;;;;5115733;28;20665;-61
2021/01/02 02:20:17;;;;;;;36.95;22.08;;;;;;;;;;5115863;28;20667;-61
2021/01/02 02:22:44;;;;;;;42.35;23.77;;;;;;;;;;5115843;28;20219;-60
2021/01/02 02:25:13;;;;;;;37.83;21.75;;;;;;;;;;5115562;28;20758;-61
2021/01/02 02:27:41;;;;;;;36.17;22.50;;;;;;;;;;5118334;28;20219;-60
2021/01/02 02:30:12;;;;;;;36.83;22.38;;;;;;;;;;5120595;28;20724;-61
2021/01/02 02:32:40;;;;;;;41.05;22.90;;;;;;;;;;5115787;28;20725;-61
2021/01/02 02:35:08;;;;;;;42.80;23.27;;;;;;;;;;5117031;28;20207;-60
2021/01/02 02:37:37;;;;;;;39.17;23.30;;;;;;;;;;5119895;28;20203;-59
2021/01/02 02:40:04;;;;;;;44.10;26.67;;;;;;;;;;5123213;28;20196;-60
2021/01/02 02:42:34;;;;;;;41.20;25.10;;;;;;;;;;5121154;28;20231;-60
2021/01/02 02:45:02;;;;;;;42.90;24.77;;;;;;;;;;5116770;27;20206;-60
2021/01/02 02:47:30;;;;;;;42.78;24.35;;;;;;;;;;5115207;28;20553;-60
2021/01/02 02:49:58;;;;;;;41.75;25.33;;;;;;;;;;5116241;28;20207;-58
2021/01/02 02:52:26;;;;;;;45.08;24.73;;;;;;;;;;5115813;28;20721;-60
2021/01/02 02:54:52;;;;;;;41.08;25.10;;;;;;;;;;5115706;28;20245;-61
2021/01/02 02:57:21;;;;;;;43.63;27.30;;;;;;;;;;5115460;28;20307;-60
2021/01/02 02:59:49;;;;;;;49.33;28.10;;;;;;;;;;5115679;28;20249;-61
2021/01/02 03:02:15;;;;;;;40.72;25.25;;;;;;;;;;5117536;28;20220;-60
2021/01/02 03:04:42;;;;;;;37.40;23.63;;;;;;;;;;5116419;28;20200;-61
2021/01/02 03:07:09;;;;;;;41.47;24.80;;;;;;;;;;5120439;28;20214;-60
2021/01/02 03:09:36;;;;;;;46.17;27.83;;;;;;;;;;5120080;28;20227;-60
2021/01/02 03:12:03;;;;;;;40.97;23.38;;;;;;;;;;5117429;28;20220;-60
2021/01/02 03:14:29;;;;;;;37.88;24.40;;;;;;;;;;5120471;28;20199;-59
2021/01/02 03:16:57;;;;;;;40.15;25.25;;;;;;;;;;5115594;28;20777;-60
2021/01/02 03:19:25;;;;;;;40.17;24.95;;;;;;;;;;5118890;28;20200;-59
2021/01/02 03:21:51;;;;;;;45.60;26.30;;;;;;;;;;5117564;28;20226;-60
2021/01/02 03:24:18;;;;;;;43.08;25.02;;;;;;;;;;5118165;28;20196;-60
2021/01/02 03:26:45;;;;;;;47.50;25.05;;;;;;;;;;5118242;28;20560;-61
2021/01/02 03:29:12;;;;;;;43.72;25.30;;;;;;;;;;5117492;28;20592;-60
2021/01/02 03:31:39;;;;;;;43.45;27.80;;;;;;;;;;5117376;27;20284;-59
2021/01/02 03:34:07;;;;;;;44.00;27.15;;;;;;;;;;5117041;28;20196;-60
2021/01/02 03:36:33;;;;;;;42.60;25.85;;;;;;;;;;5115061;28;20202;-61
2021/01/02 03:39:00;;;;;;;41.25;25.88;;;;;;;;;;5115747;28;20196;-61
2021/01/02 03:41:29;;;;;;;41.33;24.92;;;;;;;;;;5116481;28;20208;-61
2021/01/02 03:43:56;;;;;;;40.90;25.27;;;;;;;;;;5115540;28;20655;-60
2021/01/02 03:46:27;;;;;;;44.38;26.70;;;;;;;;;;5114902;28;20206;-61
2021/01/02 03:48:53;;;;;;;46.35;26.05;;;;;;;;;;5114798;28;20256;-60
2021/01/02 03:51:23;;;;;;;45.75;26.67;;;;;;;;;;5114931;28;20207;-61
2021/01/02 03:53:50;;;;;;;45.25;26.10;;;;;;;;;;5115972;28;20276;-61
2021/01/02 03:56:16;;;;;;;46.20;27.95;;;;;;;;;;5117495;28;20578;-60
2021/01/02 03:58:43;;;;;;;43.65;26.50;;;;;;;;;;5117485;28;20195;-61
2021/01/02 04:01:12;;;;;;;41.63;25.55;;;;;;;;;;5117430;28;20203;-60
2021/01/02 04:03:39;;;;;;;46.60;26.50;;;;;;;;;;5115556;28;20220;-59
2021/01/02 04:07:31;;;;;;;48.03;27.97;;;;;;;;;;5122025;27;989834;-60
2021/01/02 04:09:58;;;;;;;43.50;26.10;;;;;;;;;;5133959;28;20199;-60
2021/01/02 04:12:25;;;;;;;43.58;24.92;;;;;;;;;;5138341;28;20219;-60
2021/01/02 04:14:52;;;;;;;46.17;28.83;;;;;;;;;;5132573;28;20222;-59
2021/01/02 04:17:18;;;;;;;45.65;26.20;;;;;;;;;;5132355;28;20199;-60
2021/01/02 04:19:45;;;;;;;41.90;27.27;;;;;;;;;;5133254;28;20203;-60
2021/01/02 04:22:12;;;;;;;43.05;25.67;;;;;;;;;;5132215;28;20218;-59
2021/01/02 04:24:39;;;;;;;45.67;28.20;;;;;;;;;;5132243;28;20198;-61
2021/01/02 04:27:07;;;;;;;40.72;25.00;;;;;;;;;;5131913;28;20215;-60
2021/01/02 04:29:34;;;;;;;42.97;25.98;;;;;;;;;;5132071;28;20207;-60
2021/01/02 04:32:01;;;;;;;38.72;23.77;;;;;;;;;;5131754;28;20219;-60
2021/01/02 04:34:28;;;;;;;38.63;24.58;;;;;;;;;;5131361;28;20205;-61
2021/01/02 04:36:54;;;;;;;42.28;24.58;;;;;;;;;;5131237;28;20195;-60
2021/01/02 04:39:21;;;;;;;40.88;25.80;;;;;;;;;;5131349;28;20248;-60
2021/01/02 04:41:49;;;;;;;40.55;24.83;;;;;;;;;;5131227;28;20219;-61
2021/01/02 04:44:17;;;;;;;41.50;25.42;;;;;;;;;;5131127;28;20200;-60
2021/01/02 04:46:45;;;;;;;43.55;25.80;;;;;;;;;;5131124;28;20226;-60
2021/01/02 04:49:12;;;;;;;40.92;23.60;;;;;;;;;;5131186;28;20203;-61
2021/01/02 04:51:39;;;;;;;41.60;23.77;;;;;;;;;;5130779;28;20722;-60
2021/01/02 04:54:06;;;;;;;43.80;24.10;;;;;;;;;;5130814;28;20203;-60
2021/01/02 04:56:33;;;;;;;35.03;23.10;;;;;;;;;;5131702;28;20191;-60
2021/01/02 04:59:02;;;;;;;35.90;23.08;;;;;;;;;;5131739;28;20716;-60
2021/01/02 05:01:29;;;;;;;44.80;25.05;;;;;;;;;;5131400;28;20203;-58
2021/01/02 05:03:56;;;;;;;37.25;23.65;;;;;;;;;;5130854;28;20572;-59
2021/01/02 05:06:23;;;;;;;38.78;23.50;;;;;;;;;;5130715;28;20272;-60
2021/01/02 05:08:51;;;;;;;38.85;23.80;;;;;;;;;;5130921;28;20203;-60
2021/01/02 05:11:19;;;;;;;43.20;24.70;;;;;;;;;;5130390;28;20682;-60
2021/01/02 05:13:46;;;;;;;39.60;23.90;;;;;;;;;;5130728;28;20203;-60
2021/01/02 05:16:19;;;;;;;42.90;24.40;;;;;;;;;;5130504;28;20206;-59
2021/01/02 05:18:52;;;;;;;38.13;23.85;;;;;;;;;;5117933;28;20284;-60
2021/01/02 05:21:19;;;;;;;41.25;24.63;;;;;;;;;;5116541;28;20214;-60
2021/01/02 05:24:02;;;;;;;42.70;24.45;;;;;;;;;;5116805;28;20223;-61
2021/01/02 05:26:29;;;;;;;41.00;24.08;;;;;;;;;;5117091;28;20203;-60
2021/01/02 05:29:07;;;;;;;43.15;25.02;;;;;;;;;;5117789;28;20196;-60
2021/01/02 05:31:37;;;;;;;43.65;24.63;;;;;;;;;;5116976;28;20184;-60
2021/01/02 05:34:04;;;;;;;43.85;26.33;;;;;;;;;;5116882;28;20690;-60
2021/01/02 05:36:31;;;;;;;42.95;25.27;;;;;;;;;;5116855;28;20196;-59
2021/01/02 05:38:59;;;;;;;54.08;26.42;;;;;;;;;;5116554;28;20727;-60
2021/01/02 05:41:25;;;;;;;43.47;25.23;;;;;;;;;;5116841;28;20203;-59
2021/01/02 05:43:52;;;;;;;42.55;26.15;;;;;;;;;;5117302;28;20616;-60
2021/01/02 05:46:21;;;;;;;46.40;26.98;;;;;;;;;;5116644;28;20577;-60
2021/01/02 05:48:49;;;;;;;40.72;24.75;;;;;;;;;;5117614;28;20286;-60
2021/01/02 05:51:22;;;;;;;42.75;24.63;;;;;;;;;;5124391;28;20196;-59
2021/01/02 05:53:50;;;;;;;40.40;24.25;;;;;;;;;;5120130;28;20184;-59
2021/01/02 05:56:17;;;;;;;39.10;25.63;;;;;;;;;;5116643;28;20196;-60
2021/01/02 05:58:44;;;;;;;42.45;24.88;;;;;;;;;;5116782;28;20238;-60
2021/01/02 06:01:12;;;;;;;41.15;26.42;;;;;;;;;;5116842;28;20195;-60
2021/01/02 06:03:39;;;;;;;45.78;26.23;;;;;;;;;;5116795;28;20269;-59
2021/01/02 06:06:08;;;;;;;38.58;24.98;;;;;;;;;;5117278;28;20227;-59
2021/01/02 06:08:36;;;;;;;36.45;23.55;;;;;;;;;;5117669;28;20211;-60
2021/01/02 06:11:04;;;;;;;39.67;23.42;;;;;;;;;;5116624;28;20200;-59
2021/01/02 06:13:32;;;;;;;39.20;25.15;;;;;;;;;;5116729;28;20224;-60
2021/01/02 06:15:59;;;;;;;41.88;25.73;;;;;;;;;;5116067;28;20733;-59
2021/01/02 06:18:27;;;;;;;41.53;24.00;;;;;;;;;;5116291;28;20277;-60
2021/01/02 06:20:56;;;;;;;43.60;25.55;;;;;;;;;;5116242;28;20215;-59
2021/01/02 06:23:24;;;;;;;46.60;24.30;;;;;;;;;;5115829;28;20216;-60
2021/01/02 06:25:53;;;;;;;44.63;25.15;;;;;;;;;;5115534;28;20223;-59
2021/01/02 06:28:19;;;;;;;34.22;22.80;;;;;;;;;;5115478;28;20636;-60
2021/01/02 06:30:46;;;;;;;39.08;22.40;;;;;;;;;;5115686;28;20286;-59
2021/01/02 06:33:14;;;;;;;36.58;22.08;;;;;;;;;;5115384;28;20223;-61
2021/01/02 06:35:42;;;;;;;37.00;23.65;;;;;;;;;;5115945;28;20203;-59
2021/01/02 06:38:11;;;;;;;37.13;24.05;;;;;;;;;;5115872;28;20200;-60
2021/01/02 06:40:39;;;;;;;41.60;25.70;;;;;;;;;;5116516;28;20294;-59
2021/01/02 06:43:08;;;;;;;35.75;23.63;;;;;;;;;;5118709;28;20228;-60
2021/01/02 06:45:44;;;;;;;39.15;23.83;;;;;;;;;;5119505;28;20282;-60
2021/01/02 06:48:30;;;;;;;36.63;22.35;;;;;;;;;;5116988;28;20244;-60
2021/01/02 06:50:58;;;;;;;34.53;22.63;;;;;;;;;;5117757;28;20233;-59
2021/01/02 06:53:25;;;;;;;38.20;22.70;;;;;;;;;;5119037;28;20347;-61
2021/01/02 06:55:58;;;;;;;36.70;22.70;;;;;;;;;;5118168;28;20252;-59
2021/01/02 06:58:25;;;;;;;38.63;22.90;;;;;;;;;;5117051;28;20230;-59
2021/01/02 07:00:51;;;;;;;35.53;23.20;;;;;;;;;;5120260;28;20196;-62
2021/01/02 07:03:37;;;;;;;33.30;21.30;;;;;;;;;;5122268;28;20220;-60
2021/01/02 07:06:20;;;;;;;34.33;22.60;;;;;;;;;;5121594;28;20230;-60
2021/01/02 07:08:48;;;;;;;40.60;23.65;;;;;;;;;;5121834;28;20195;-60
2021/01/02 07:11:33;;;;;;;34.92;22.35;;;;;;;;;;5122534;28;20200;-60
2021/01/02 07:14:25;;;;;;;39.40;23.25;;;;;;;;;;5122043;28;20220;-59
2021/01/02 07:16:53;;;;;;;39.03;21.80;;;;;;;;;;5104172;28;20260;-59
2021/01/02 07:19:30;;;;;;;44.13;24.13;;;;;;;;;;5126305;28;20288;-60
2021/01/02 07:21:58;;;;;;;36.65;23.55;;;;;;;;;;5128270;28;20250;-60
2021/01/02 07:24:25;;;;;;;35.78;21.30;;;;;;;;;;5128308;28;20215;-59
2021/01/02 07:26:57;;;;;;;37.47;21.52;;;;;;;;;;5125784;28;20226;-60
2021/01/02 07:29:25;;;;;;;38.13;22.27;;;;;;;;;;5126864;28;20203;-60
2021/01/02 07:31:51;;;;;;;41.63;24.40;;;;;;;;;;5117427;28;20230;-60
2021/01/02 07:34:19;;;;;;;42.88;24.85;;;;;;;;;;5119008;28;20206;-59
2021/01/02 07:36:46;;;;;;;37.35;23.60;;;;;;;;;;5121711;28;20613;-59
2021/01/02 07:39:14;;;;;;;36.20;22.73;;;;;;;;;;5120015;28;20199;-59
2021/01/02 07:41:40;;;;;;;38.95;23.40;;;;;;;;;;5116437;28;20768;-60
2021/01/02 07:44:08;;;;;;;44.28;26.77;;;;;;;;;;5114795;28;20199;-60
2021/01/02 07:46:42;;;;;;;39.53;24.50;;;;;;;;;;5115295;28;20220;-59
2021/01/02 07:49:09;;;;;;;37.33;24.23;;;;;;;;;;5114908;28;20274;-60
2021/01/02 07:51:36;;;;;;;38.85;24.58;;;;;;;;;;5114438;28;20206;-59
2021/01/02 07:54:03;;;;;;;38.28;23.08;;;;;;;;;;5114070;28;20546;-60
2021/01/02 07:56:37;;;;;;;37.53;24.25;;;;;;;;;;5114092;28;20202;-60
2021/01/02 07:59:21;;;;;;;40.55;26.13;;;;;;;;;;5113856;28;20204;-59
2021/01/02 08:01:51;;;;;;;38.33;24.13;;;;;;;;;;5114193;28;20273;-60
2021/01/02 08:04:19;;;;;;;41.03;24.30;;;;;;;;;;5113857;28;20236;-60
2021/01/02 08:06:47;;;;;;;44.50;24.80;;;;;;;;;;5113637;28;20283;-60
2021/01/02 08:09:13;;;;;;;42.83;24.15;;;;;;;;;;5114032;28;20287;-60
2021/01/02 08:11:47;;;;;;;44.95;26.58;;;;;;;;;;5114198;28;20223;-60
2021/01/02 08:14:14;;;;;;;45.35;26.25;;;;;;;;;;5114086;28;20237;-60
2021/01/02 08:16:42;;;;;;;38.83;25.25;;;;;;;;;;5114217;28;20199;-60
2021/01/02 08:19:08;;;;;;;47.88;27.05;;;;;;;;;;5114592;28;20199;-60
2021/01/02 08:21:39;;;;;;;44.90;25.17;;;;;;;;;;5113949;28;20257;-60
2021/01/02 08:24:06;;;;;;;38.53;25.45;;;;;;;;;;5113875;28;20564;-60
2021/01/02 08:26:33;;;;;;;43.72;25.08;;;;;;;;;;5114181;28;20570;-60
2021/01/02 08:29:00;;;;;;;41.88;25.42;;;;;;;;;;5113997;28;20614;-60
2021/01/02 08:31:27;;;;;;;39.55;23.50;;;;;;;;;;5114363;28;20265;-59
2021/01/02 08:33:57;;;;;;;42.60;24.73;;;;;;;;;;5114534;28;20207;-59
2021/01/02 08:36:23;;;;;;;37.63;23.15;;;;;;;;;;5114805;28;20206;-59
2021/01/02 08:38:56;;;;;;;39.45;25.55;;;;;;;;;;5114544;28;20207;-60
2021/01/02 08:41:23;;;;;;;41.58;25.48;;;;;;;;;;5113840;28;20180;-60
2021/01/02 08:43:50;;;;;;;39.90;24.17;;;;;;;;;;5114629;28;20541;-60
2021/01/02 08:46:23;;;;;;;40.70;24.23;;;;;;;;;;5114022;28;20212;-60
2021/01/02 08:48:50;;;;;;;47.75;25.67;;;;;;;;;;5114623;28;20242;-60
2021/01/02 08:51:24;;;;;;;42.97;25.85;;;;;;;;;;5114392;28;20203;-59
2021/01/02 08:53:51;;;;;;;38.53;25.48;;;;;;;;;;5117126;28;20206;-60
2021/01/02 08:56:22;;;;;;;37.92;23.75;;;;;;;;;;5117379;28;20565;-59
2021/01/02 08:58:49;;;;;;;38.22;24.58;;;;;;;;;;5117897;28;20199;-59
2021/01/02 09:01:15;;;;;;;42.80;24.13;;;;;;;;;;5117237;28;20206;-60
2021/01/02 09:03:42;;;;;;;40.83;25.48;;;;;;;;;;5118551;28;20216;-59
2021/01/02 09:06:19;;;;;;;39.47;24.88;;;;;;;;;;5118582;28;20232;-60
2021/01/02 09:08:47;;;;;;;41.90;25.85;;;;;;;;;;5118393;28;20271;-61
2021/01/02 09:11:13;;;;;;;42.63;24.20;;;;;;;;;;5125538;28;20208;-59
2021/01/02 09:13:40;;;;;;;41.40;26.08;;;;;;;;;;5118862;28;20706;-59
2021/01/02 09:16:14;;;;;;;44.10;25.75;;;;;;;;;;5117161;28;20196;-58
2021/01/02 09:18:42;;;;;;;41.35;23.98;;;;;;;;;;5117284;28;20187;-59
2021/01/02 09:21:19;;;;;;;38.90;24.05;;;;;;;;;;5117793;28;20199;-58
2021/01/02 09:23:47;;;;;;;39.03;24.45;;;;;;;;;;5117840;28;20627;-59
2021/01/02 09:26:21;;;;;;;40.55;24.77;;;;;;;;;;5117744;28;20219;-60
2021/01/02 09:28:48;;;;;;;40.83;26.10;;;;;;;;;;5117586;28;20199;-59
2021/01/02 09:31:15;;;;;;;45.92;27.60;;;;;;;;;;5116588;28;20674;-59
2021/01/02 09:33:42;;;;;;;38.83;24.67;;;;;;;;;;5116726;28;20239;-59
2021/01/02 09:36:09;;;;;;;40.45;23.80;;;;;;;;;;5117400;28;20195;-60
2021/01/02 09:38:36;;;;;;;44.45;25.58;;;;;;;;;;5116609;28;20219;-60
2021/01/02 09:41:04;;;;;;;39.35;22.98;;;;;;;;;;5116749;28;20204;-59
2021/01/02 09:43:34;;;;;;;41.55;24.45;;;;;;;;;;5117078;28;20223;-59
2021/01/02 09:46:00;;;;;;;39.65;24.48;;;;;;;;;;5117292;28;20224;-59
2021/01/02 09:48:27;;;;;;;42.10;25.98;;;;;;;;;;5117174;28;20199;-60
2021/01/02 09:50:54;;;;;;;42.78;25.95;;;;;;;;;;5117244;28;20207;-60
2021/01/02 09:53:21;;;;;;;42.50;24.27;;;;;;;;;;5116550;28;20223;-59
2021/01/02 09:55:48;;;;;;;41.42;24.73;;;;;;;;;;5117046;28;20200;-59
2021/01/02 09:58:15;;;;;;;40.33;23.90;;;;;;;;;;5118119;28;20288;-60
2021/01/02 10:00:42;;;;;;;44.55;25.90;;;;;;;;;;5119321;28;20253;-59
2021/01/02 10:03:10;;;;;;;39.50;23.42;;;;;;;;;;5117249;28;20216;-59
2021/01/02 10:05:37;;;;;;;37.03;23.88;;;;;;;;;;5116891;28;20222;-59
2021/01/02 10:08:04;;;;;;;38.85;23.70;;;;;;;;;;5116735;28;20196;-59
2021/01/02 10:10:31;;;;;;;37.30;23.38;;;;;;;;;;5116601;28;20199;-60
2021/01/02 10:12:59;;;;;;;37.55;23.30;;;;;;;;;;5116595;28;20227;-59
2021/01/02 10:15:27;;;;;;;41.88;24.33;;;;;;;;;;5116183;28;20204;-59
2021/01/02 10:17:54;;;;;;;32.95;20.85;;;;;;;;;;5116493;28;20282;-59
2021/01/02 10:20:20;;;;;;;37.80;22.27;;;;;;;;;;5116649;28;20200;-60
2021/01/02 10:22:47;;;;;;;36.50;23.35;;;;;;;;;;5116223;28;20219;-60
2021/01/02 10:25:14;;;;;;;38.65;25.73;;;;;;;;;;5118467;28;20272;-60
2021/01/02 10:27:41;;;;;;;40.15;22.58;;;;;;;;;;5116309;28;20228;-59
2021/01/02 10:30:09;;;;;;;35.45;21.77;;;;;;;;;;5116810;28;20196;-59
2021/01/02 10:32:37;;;;;;;34.08;22.50;;;;;;;;;;5116124;28;20227;-59
2021/01/02 10:35:05;;;;;;;33.72;22.65;;;;;;;;;;5116172;28;20199;-60
2021/01/02 10:37:32;;;;;;;36.50;23.30;;;;;;;;;;5116549;28;20279;-58
2021/01/02 10:39:59;;;;;;;41.65;23.98;;;;;;;;;;5115877;28;20199;-60
2021/01/02 10:42:29;;;;;;;35.25;22.08;;;;;;;;;;5115991;28;20223;-60
2021/01/02 10:44:56;;;;;;;37.08;22.42;;;;;;;;;;5115938;28;20200;-59
2021/01/02 10:47:24;;;;;;;32.17;22.40;;;;;;;;;;5115970;28;20630;-59
2021/01/02 10:49:52;;;;;;;31.58;20.10;;;;;;;;;;5115958;28;20204;-59
2021/01/02 10:52:20;;;;;;;31.55;20.13;;;;;;;;;;5116053;28;20220;-60
2021/01/02 10:54:47;;;;;;;30.35;22.55;;;;;;;;;;5115600;28;20199;-60
2021/01/02 10:57:14;;;;;;;29.67;20.48;;;;;;;;;;5116766;28;20203;-60
2021/01/02 10:59:43;;;;;;;35.10;19.73;;;;;;;;;;5117653;28;20203;-60
2021/01/02 11:02:10;;;;;;;32.30;19.58;;;;;;;;;;5116141;28;20219;-59
2021/01/02 11:04:37;;;;;;;33.25;21.02;;;;;;;;;;5118256;28;20272;-60
2021/01/02 11:07:05;;;;;;;28.85;18.40;;;;;;;;;;5118706;28;20220;-60
2021/01/02 11:09:32;;;;;;;27.98;19.65;;;;;;;;;;5119085;28;20208;-59
2021/01/02 11:11:59;;;;;;;32.88;20.33;;;;;;;;;;5117043;28;20224;-59
2021/01/02 11:14:26;;;;;;;32.83;19.90;;;;;;;;;;5117694;28;20207;-60
2021/01/02 11:16:52;;;;;;;31.50;20.85;;;;;;;;;;5115647;27;20195;-59
2021/01/02 11:19:20;;;;;;;34.30;19.85;;;;;;;;;;5116953;28;20207;-58
2021/01/02 11:21:48;;;;;;;30.20;18.60;;;;;;;;;;5116840;28;20223;-60
2021/01/02 11:24:17;;;;;;;31.15;20.13;;;;;;;;;;5117310;28;20257;-60
2021/01/02 11:26:45;;;;;;;27.08;16.77;;;;;;;;;;5118530;28;20808;-60
2021/01/02 11:29:12;;;;;;;29.45;20.08;;;;;;;;;;5118071;28;20735;-61
2021/01/02 11:31:39;;;;;;;26.77;17.45;;;;;;;;;;5117015;28;20227;-60
2021/01/02 11:34:06;;;;;;;29.10;18.67;;;;;;;;;;5118436;28;20200;-61
2021/01/02 11:36:33;;;;;;;28.75;18.73;;;;;;;;;;5120830;28;20245;-61
2021/01/02 11:39:11;;;;;;;26.45;18.88;;;;;;;;;;5127728;28;20200;-61
2021/01/02 11:41:40;;;;;;;28.05;18.40;;;;;;;;;;5128635;28;20225;-63
2021/01/02 11:44:07;;;;;;;27.08;18.00;;;;;;;;;;5129403;28;20278;-62
2021/01/02 11:46:35;;;;;;;26.75;17.13;;;;;;;;;;5128819;28;20592;-62
2021/01/02 11:49:02;;;;;;;26.52;17.30;;;;;;;;;;5128383;28;20200;-61
2021/01/02 11:51:31;;;;;;;28.20;18.27;;;;;;;;;;5128611;28;20229;-62
2021/01/02 11:53:58;;;;;;;29.83;17.63;;;;;;;;;;5127942;28;20196;-61
2021/01/02 11:56:26;;;;;;;27.30;17.55;;;;;;;;;;5129155;28;20217;-61
2021/01/02 11:58:55;;;;;;;29.27;17.55;;;;;;;;;;5126596;28;20207;-62
2021/01/02 12:01:22;;;;;;;26.38;18.63;;;;;;;;;;5124657;28;20196;-61
2021/01/02 12:03:49;;;;;;;26.30;16.45;;;;;;;;;;5126289;28;20204;-63
2021/01/02 12:06:16;;;;;;;24.05;17.00;;;;;;;;;;5126964;28;20234;-61
2021/01/02 12:08:43;;;;;;;24.50;16.48;;;;;;;;;;5125957;28;20229;-60
2021/01/02 12:11:10;;;;;;;26.48;16.38;;;;;;;;;;5125897;28;20221;-62
2021/01/02 12:13:38;;;;;;;25.60;17.35;;;;;;;;;;5124835;28;20249;-61
2021/01/02 12:16:06;;;;;;;21.70;15.65;;;;;;;;;;5124469;28;20215;-61
2021/01/02 12:18:33;;;;;;;26.35;17.58;;;;;;;;;;5124243;28;20282;-62
2021/01/02 12:21:00;;;;;;;25.38;16.70;;;;;;;;;;5125511;28;20196;-61
2021/01/02 12:23:26;;;;;;;22.00;15.85;;;;;;;;;;5124018;28;20340;-61
2021/01/02 12:25:53;;;;;;;27.98;17.48;;;;;;;;;;5125160;28;20203;-61
2021/01/02 12:28:20;;;;;;;24.90;17.83;;;;;;;;;;5127505;28;20195;-61
2021/01/02 12:30:47;;;;;;;26.17;17.48;;;;;;;;;;5125181;28;20207;-60
2021/01/02 12:33:15;;;;;;;23.40;16.15;;;;;;;;;;5121203;28;20219;-60
2021/01/02 12:35:41;;;;;;;23.30;16.77;;;;;;;;;;5120287;28;20230;-61
2021/01/02 12:38:08;;;;;;;27.42;17.10;;;;;;;;;;5120981;28;20196;-61
2021/01/02 12:40:35;;;;;;;26.05;16.85;;;;;;;;;;5123539;28;20209;-61
2021/01/02 12:43:02;;;;;;;25.63;16.67;;;;;;;;;;5122590;28;20219;-60
2021/01/02 12:45:28;;;;;;;23.70;15.77;;;;;;;;;;5122662;28;20196;-61
2021/01/02 12:47:55;;;;;;;22.85;14.95;;;;;;;;;;5122072;28;20249;-61
2021/01/02 12:50:23;;;;;;;28.10;16.65;;;;;;;;;;5120370;28;20199;-60
2021/01/02 12:52:50;;;;;;;24.20;16.25;;;;;;;;;;5120018;28;20215;-61
2021/01/02 12:55:16;;;;;;;25.02;17.10;;;;;;;;;;5120592;28;20286;-61
2021/01/02 12:57:43;;;;;;;28.35;17.80;;;;;;;;;;5119775;28;20196;-60
2021/01/02 13:00:10;;;;;;;23.70;16.05;;;;;;;;;;5119564;28;20200;-60
2021/01/02 13:02:37;;;;;;;27.88;15.65;;;;;;;;;;5118987;28;20245;-60
2021/01/02 13:05:04;;;;;;;22.25;15.15;;;;;;;;;;5119457;28;20204;-61
2021/01/02 13:07:32;;;;;;;21.50;15.57;;;;;;;;;;5118682;28;20695;-60
2021/01/02 13:09:59;;;;;;;21.15;14.93;;;;;;;;;;5118915;28;20199;-61
2021/01/02 13:12:28;;;;;;;25.30;16.65;;;;;;;;;;5118906;28;20223;-60
2021/01/02 13:14:58;;;;;;;21.83;15.25;;;;;;;;;;5121484;28;20694;-60
2021/01/02 13:17:25;;;;;;;24.05;14.80;;;;;;;;;;5119003;28;20200;-61
2021/01/02 13:19:51;;;;;;;21.00;14.13;;;;;;;;;;5118035;28;20211;-61
2021/01/02 13:22:19;;;;;;;21.50;15.60;;;;;;;;;;5117706;28;20732;-60
2021/01/02 13:24:48;;;;;;;24.35;16.23;;;;;;;;;;5117857;28;20208;-59
2021/01/02 13:27:17;;;;;;;19.33;14.63;;;;;;;;;;5117883;28;20276;-61
2021/01/02 13:29:49;;;;;;;27.67;17.20;;;;;;;;;;5117761;28;20199;-60
2021/01/02 13:32:17;;;;;;;22.50;14.80;;;;;;;;;;5116973;28;20227;-60
2021/01/02 13:34:43;;;;;;;21.60;14.65;;;;;;;;;;5117159;28;20518;-60
2021/01/02 13:37:12;;;;;;;21.08;14.80;;;;;;;;;;5117806;28;20620;-60
2021/01/02 13:39:40;;;;;;;22.67;14.73;;;;;;;;;;5118886;28;20231;-60
2021/01/02 13:42:08;;;;;;;27.77;16.30;;;;;;;;;;5117958;28;20226;-59
2021/01/02 13:44:36;;;;;;;19.95;14.43;;;;;;;;;;5118144;28;20232;-60
2021/01/02 13:47:04;;;;;;;20.20;13.93;;;;;;;;;;5117678;28;20625;-60
2021/01/02 13:49:31;;;;;;;21.40;15.35;;;;;;;;;;5117323;28;20200;-61
2021/01/02 13:51:57;;;;;;;20.33;13.52;;;;;;;;;;5117797;28;20215;-61
2021/01/02 13:54:24;;;;;;;20.17;13.68;;;;;;;;;;5117217;28;20203;-60
2021/01/02 13:56:52;;;;;;;23.75;15.20;;;;;;;;;;5118099;28;20203;-60
2021/01/02 13:59:20;;;;;;;21.08;13.63;;;;;;;;;;5123721;28;20195;-61
2021/01/02 14:01:47;;;;;;;21.15;14.65;;;;;;;;;;5122288;28;20219;-61
2021/01/02 14:04:14;;;;;;;21.85;13.82;;;;;;;;;;5118728;28;20617;-62
2021/01/02 14:06:45;;;;;;;21.23;14.98;;;;;;;;;;5116407;28;20594;-61
2021/01/02 14:09:12;;;;;;;23.83;15.10;;;;;;;;;;5116607;28;20241;-61
2021/01/02 14:11:38;;;;;;;20.75;13.88;;;;;;;;;;5117431;28;20207;-61
2021/01/02 14:14:06;;;;;;;18.88;12.80;;;;;;;;;;5117434;28;20710;-61
2021/01/02 14:16:34;;;;;;;21.50;13.88;;;;;;;;;;5117351;28;20223;-61
2021/01/02 14:19:00;;;;;;;22.25;14.77;;;;;;;;;;5116792;28;20302;-61
2021/01/02 14:21:27;;;;;;;21.05;15.15;;;;;;;;;;5115643;28;20551;-60
2021/01/02 14:23:54;;;;;;;20.50;13.63;;;;;;;;;;5116195;28;20204;-61
2021/01/02 14:26:21;;;;;;;21.48;14.27;;;;;;;;;;5116719;28;20214;-60
2021/01/02 14:28:48;;;;;;;22.27;14.10;;;;;;;;;;5115868;28;20203;-60